WetterOnline ( https://www.wetteronline.de )

Wetter aktuell Kolkwitz

Aktuelles Wetter: Hoyerswerda (116m)

6-stündlich | Neueste Meldungen
Ortszeit Temperatur Wetter
Fr, 24.05. 8:00 16.5° C leicht bewölkt
Fr, 24.05. 2:00 11.0° C wolkig
Do, 23.05. 20:00 20.6° C wolkig
Do, 23.05. 14:00 20.2° C bedeckt
Do, 23.05. 8:00 15.8° C bewölkt
Do, 23.05. 2:00 15.3° C bedeckt
Mi, 22.05. 20:00 16.6° C bedeckt
Mi, 22.05. 14:00 20.3° C bewölkt
Ortszeit Temperatur Wetter
Fr, 24.05. 10:00 20.8° C bewölkt
Fr, 24.05. 9:50 20.8° C bewölkt
Fr, 24.05. 9:40 20.4° C bewölkt
Fr, 24.05. 9:30 20.0° C bewölkt
Fr, 24.05. 9:20 20.0° C bewölkt
Fr, 24.05. 9:10 19.9° C bedeckt
Fr, 24.05. 9:00 19.6° C bewölkt
Fr, 24.05. 8:30 18.7° C wolkig
Fr, 24.05. 8:00 16.5° C leicht bewölkt
Fr, 24.05. 7:30 15.7° C wolkig
Fr, 24.05. 7:00 15.6° C bewölkt
Ortszeit Relative Feuchte Sichtweite
Fr, 24.05. 8:00 76% 40 km
Fr, 24.05. 2:00 97% 25 km
Do, 23.05. 20:00 53% 55 km
Do, 23.05. 14:00 55% 40 km
Do, 23.05. 8:00 81% 45 km
Do, 23.05. 2:00 84% 35 km
Mi, 22.05. 20:00 74% 50 km
Mi, 22.05. 14:00 66% 45 km
Ortszeit Relative Feuchte Sichtweite
Fr, 24.05. 10:00 58% 50 km
Fr, 24.05. 9:50 58% -
Fr, 24.05. 9:40 60% -
Fr, 24.05. 9:30 62% 45 km
Fr, 24.05. 9:20 62% -
Fr, 24.05. 9:10 62% -
Fr, 24.05. 9:00 64% 40 km
Fr, 24.05. 8:30 69% 40 km
Fr, 24.05. 8:00 76% 40 km
Fr, 24.05. 7:30 78% 40 km
Fr, 24.05. 7:00 79% 35 km
Ortszeit Niederschlagsmenge Niederschlagsart
Fr, 24.05. 8:00 0.0 l/m2 in 12 Std. -
Fr, 24.05. 2:00 0.0 l/m2 in 6 Std. -
Do, 23.05. 20:00 0.0 l/m2 in 12 Std. -
Do, 23.05. 14:00 0.0 l/m2 in 6 Std. -
Do, 23.05. 8:00 0.1 l/m2 in 12 Std. Regen
Do, 23.05. 2:00 0.0 l/m2 in 6 Std. -
Mi, 22.05. 20:00 0.0 l/m2 in 12 Std. -
Mi, 22.05. 14:00 0.0 l/m2 in 6 Std. -
Ortszeit Niederschlagsmenge Niederschlagsart
Fr, 24.05. 10:00 0.0 l/m2 in 1 Std. -
Fr, 24.05. 9:50 keine Meldung -
Fr, 24.05. 9:40 keine Meldung -
Fr, 24.05. 9:30 0.0 l/m2 in 30 Min -
Fr, 24.05. 9:20 keine Meldung -
Fr, 24.05. 9:10 keine Meldung -
Fr, 24.05. 9:00 0.0 l/m2 in 1 Std. -
Fr, 24.05. 8:30 0.0 l/m2 in 30 Min -
Fr, 24.05. 8:00 0.0 l/m2 in 1 Std. -
Fr, 24.05. 7:30 0.0 l/m2 in 30 Min -
Fr, 24.05. 7:00 0.0 l/m2 in 1 Std. -
Ortszeit Stärke Spitze Richtung
km/h Bft. km/h Grad Sektor
Fr, 24.05. 8:00 13 3 20 90° O
Fr, 24.05. 2:00 0 0 11 - -
Do, 23.05. 20:00 6 1 19 140° SO
Do, 23.05. 14:00 9 2 35 260° W
Do, 23.05. 8:00 14 3 25 270° W
Do, 23.05. 2:00 11 2 31 260° W
Mi, 22.05. 20:00 19 3 44 260° W
Mi, 22.05. 14:00 19 3 37 210° SW
Ortszeit Stärke Spitze Richtung
km/h Bft. km/h Grad Sektor
Fr, 24.05. 10:00 17 3 28 110° O
Fr, 24.05. 9:50 17 3 - 110° O
Fr, 24.05. 9:40 15 3 - 110° O
Fr, 24.05. 9:30 14 3 25 90° O
Fr, 24.05. 9:20 14 3 - 90° O
Fr, 24.05. 9:10 14 3 - 100° O
Fr, 24.05. 9:00 15 3 24 90° O
Fr, 24.05. 8:30 11 2 18 110° O
Fr, 24.05. 8:00 13 3 20 90° O
Fr, 24.05. 7:30 7 2 13 100° O
Fr, 24.05. 7:00 4 1 7 70° O
Ortszeit Untergrenze Bedeckung Gattung
total tief tief mittel hoch
Fr, 24.05. 8:00 3000 m 2/8 1/8 - - -
Fr, 24.05. 2:00 7200 m 8/8 0/8 - - -
Do, 23.05. 20:00 7800 m 8/8 0/8 - - -
Do, 23.05. 14:00 2100 m 8/8 8/8 - - -
Do, 23.05. 8:00 1110 m 7/8 7/8 - - -
Do, 23.05. 2:00 1500 m 8/8 8/8 - - -
Mi, 22.05. 20:00 720 m 8/8 8/8 - - -
Mi, 22.05. 14:00 780 m 7/8 7/8 - - -
Ortszeit Bedeckungsgrad in Achtel und Wolkenuntergrenze
Fr, 24.05. 10:00 7(2700m)
Fr, 24.05. 9:50 7(2700m)
Fr, 24.05. 9:40 7
Fr, 24.05. 9:30 7(2700m)
Fr, 24.05. 9:20 7(2700m)
Fr, 24.05. 9:10 8
Fr, 24.05. 9:00 6(2700m) 7(7800m)
Fr, 24.05. 8:30 4(3000m) 5(8400m)
Fr, 24.05. 8:00 1(3000m)
Fr, 24.05. 7:30 2(3000m) 5(6000m) 7(9000m)
Fr, 24.05. 7:00 6(3000m) 7(8700m)
Ortszeit Luftdruck NN (hPa) Tendenz (hPa in 3 Std.)
Fr, 24.05. 8:00 1018 + 0,2
Fr, 24.05. 2:00 1017 + 0,1
Do, 23.05. 20:00 1015 + 0,5
Do, 23.05. 14:00 1015 + 0,5
Do, 23.05. 8:00 1014 + 1,3
Do, 23.05. 2:00 1012 + 0,2
Mi, 22.05. 20:00 1010 + 1,1
Mi, 22.05. 14:00 1007 + 1,3
Ortszeit Luftdruck NN (hPa) Tendenz (hPa in 3 Std.)
Fr, 24.05. 10:00 1018 + 0,4
Fr, 24.05. 9:50 1018 keine Meldung
Fr, 24.05. 9:40 1018 keine Meldung
Fr, 24.05. 9:30 1018 + 0,3
Fr, 24.05. 9:20 1018 keine Meldung
Fr, 24.05. 9:10 1018 keine Meldung
Fr, 24.05. 9:00 1018 + 0,2
Fr, 24.05. 8:30 1018 + 0,4
Fr, 24.05. 8:00 1018 + 0,2
Fr, 24.05. 7:30 1018 + 0,3
Fr, 24.05. 7:00 1018 + 0,2
Ortszeit Schneehöhe (cm)
Fr, 24.05. 8:00 0
Fr, 24.05. 2:00 0
Do, 23.05. 20:00 0
Do, 23.05. 14:00 0
Do, 23.05. 8:00 0
Do, 23.05. 2:00 0
Mi, 22.05. 20:00 0
Mi, 22.05. 14:00 0
Ortszeit Schneehöhe (cm)
Fr, 24.05. 10:00 0
Fr, 24.05. 9:50 0
Fr, 24.05. 9:40 -
Fr, 24.05. 9:30 0
Fr, 24.05. 9:20 0
Fr, 24.05. 9:10 -
Fr, 24.05. 9:00 0
Fr, 24.05. 8:30 0
Fr, 24.05. 8:00 0
Fr, 24.05. 7:30 0
Fr, 24.05. 7:00 0
Link zu dieser Seite / Seite empfehlen

Das Wetter in ...